sensor_id;sensor_type;location;lat;lon;timestamp;temperature;humidity
5017;DHT22;2527;50.892;16.706;2023-12-20T00:01:41;10.80;99.90
5017;DHT22;2527;50.892;16.706;2023-12-20T00:04:07;10.80;99.90
5017;DHT22;2527;50.892;16.706;2023-12-20T00:06:33;10.80;99.90
5017;DHT22;2527;50.892;16.706;2023-12-20T00:08:59;10.80;99.90
5017;DHT22;2527;50.892;16.706;2023-12-20T00:11:25;10.80;99.90
5017;DHT22;2527;50.892;16.706;2023-12-20T00:13:51;10.80;99.90
5017;DHT22;2527;50.892;16.706;2023-12-20T00:16:17;10.80;99.90
5017;DHT22;2527;50.892;16.706;2023-12-20T00:18:43;10.90;99.90
5017;DHT22;2527;50.892;16.706;2023-12-20T00:21:08;10.80;99.90
5017;DHT22;2527;50.892;16.706;2023-12-20T00:23:34;10.80;99.90
5017;DHT22;2527;50.892;16.706;2023-12-20T00:26:04;10.80;99.90
5017;DHT22;2527;50.892;16.706;2023-12-20T00:28:30;10.90;99.90
5017;DHT22;2527;50.892;16.706;2023-12-20T00:30:55;10.90;99.90
5017;DHT22;2527;50.892;16.706;2023-12-20T00:33:21;10.90;99.90
5017;DHT22;2527;50.892;16.706;2023-12-20T00:35:47;10.90;99.90
5017;DHT22;2527;50.892;16.706;2023-12-20T00:38:14;10.90;99.90
5017;DHT22;2527;50.892;16.706;2023-12-20T00:40:39;10.90;99.90
5017;DHT22;2527;50.892;16.706;2023-12-20T00:43:05;10.90;99.90
5017;DHT22;2527;50.892;16.706;2023-12-20T00:45:31;10.90;99.90
5017;DHT22;2527;50.892;16.706;2023-12-20T00:47:58;10.90;99.90
5017;DHT22;2527;50.892;16.706;2023-12-20T00:50:24;10.90;99.90
5017;DHT22;2527;50.892;16.706;2023-12-20T00:52:50;10.90;99.90
5017;DHT22;2527;50.892;16.706;2023-12-20T00:55:16;10.80;99.90
5017;DHT22;2527;50.892;16.706;2023-12-20T00:57:42;10.80;99.90
5017;DHT22;2527;50.892;16.706;2023-12-20T01:00:09;10.80;99.90
5017;DHT22;2527;50.892;16.706;2023-12-20T01:02:39;10.80;99.90
5017;DHT22;2527;50.892;16.706;2023-12-20T01:05:05;10.90;99.90
5017;DHT22;2527;50.892;16.706;2023-12-20T01:07:32;10.80;99.90
5017;DHT22;2527;50.892;16.706;2023-12-20T01:09:58;10.80;99.90
5017;DHT22;2527;50.892;16.706;2023-12-20T01:12:24;10.90;99.90
5017;DHT22;2527;50.892;16.706;2023-12-20T01:14:49;10.80;99.90
5017;DHT22;2527;50.892;16.706;2023-12-20T01:17:15;10.80;99.90
5017;DHT22;2527;50.892;16.706;2023-12-20T01:19:41;10.90;99.90
5017;DHT22;2527;50.892;16.706;2023-12-20T01:22:07;10.80;99.90
5017;DHT22;2527;50.892;16.706;2023-12-20T01:24:32;9.50;99.90
5017;DHT22;2527;50.892;16.706;2023-12-20T01:26:58;10.80;99.90
5017;DHT22;2527;50.892;16.706;2023-12-20T01:29:24;10.80;99.90
5017;DHT22;2527;50.892;16.706;2023-12-20T01:31:50;10.80;99.90
5017;DHT22;2527;50.892;16.706;2023-12-20T01:34:16;10.80;99.90
5017;DHT22;2527;50.892;16.706;2023-12-20T01:36:43;10.70;99.90
5017;DHT22;2527;50.892;16.706;2023-12-20T01:39:08;10.70;99.90
5017;DHT22;2527;50.892;16.706;2023-12-20T01:41:34;10.70;99.90
5017;DHT22;2527;50.892;16.706;2023-12-20T01:44:00;10.70;99.90
5017;DHT22;2527;50.892;16.706;2023-12-20T01:46:25;10.70;99.90
5017;DHT22;2527;50.892;16.706;2023-12-20T01:48:52;10.70;99.90
5017;DHT22;2527;50.892;16.706;2023-12-20T01:51:19;10.70;99.90
5017;DHT22;2527;50.892;16.706;2023-12-20T01:53:45;10.70;99.90
5017;DHT22;2527;50.892;16.706;2023-12-20T01:56:12;10.70;99.90
5017;DHT22;2527;50.892;16.706;2023-12-20T01:58:39;10.70;99.90
5017;DHT22;2527;50.892;16.706;2023-12-20T02:01:06;10.60;99.90
5017;DHT22;2527;50.892;16.706;2023-12-20T02:03:31;10.60;99.90
5017;DHT22;2527;50.892;16.706;2023-12-20T02:05:57;10.60;99.90
5017;DHT22;2527;50.892;16.706;2023-12-20T02:08:24;10.60;99.90
5017;DHT22;2527;50.892;16.706;2023-12-20T02:10:50;10.60;99.90
5017;DHT22;2527;50.892;16.706;2023-12-20T02:13:16;10.50;99.90
5017;DHT22;2527;50.892;16.706;2023-12-20T02:15:41;10.50;99.90
5017;DHT22;2527;50.892;16.706;2023-12-20T02:18:09;10.50;99.90
5017;DHT22;2527;50.892;16.706;2023-12-20T02:20:35;10.50;99.90
5017;DHT22;2527;50.892;16.706;2023-12-20T02:23:01;11.50;99.90
5017;DHT22;2527;50.892;16.706;2023-12-20T02:25:26;10.40;99.90
5017;DHT22;2527;50.892;16.706;2023-12-20T02:27:52;10.40;99.90
5017;DHT22;2527;50.892;16.706;2023-12-20T02:30:18;10.40;99.90
5017;DHT22;2527;50.892;16.706;2023-12-20T02:32:43;10.30;99.90
5017;DHT22;2527;50.892;16.706;2023-12-20T02:35:09;10.30;99.90
5017;DHT22;2527;50.892;16.706;2023-12-20T02:37:35;10.30;99.90
5017;DHT22;2527;50.892;16.706;2023-12-20T02:40:02;10.20;99.90
5017;DHT22;2527;50.892;16.706;2023-12-20T02:42:29;10.30;99.90
5017;DHT22;2527;50.892;16.706;2023-12-20T02:44:55;10.30;99.90
5017;DHT22;2527;50.892;16.706;2023-12-20T02:47:21;10.30;99.90
5017;DHT22;2527;50.892;16.706;2023-12-20T02:49:47;10.20;99.90
5017;DHT22;2527;50.892;16.706;2023-12-20T02:52:13;10.30;99.90
5017;DHT22;2527;50.892;16.706;2023-12-20T02:54:39;10.30;99.90
5017;DHT22;2527;50.892;16.706;2023-12-20T02:57:04;10.30;99.90
5017;DHT22;2527;50.892;16.706;2023-12-20T02:59:30;10.30;99.90
5017;DHT22;2527;50.892;16.706;2023-12-20T03:01:56;10.30;99.90
5017;DHT22;2527;50.892;16.706;2023-12-20T03:04:22;10.30;99.90
5017;DHT22;2527;50.892;16.706;2023-12-20T03:06:49;10.30;99.90
5017;DHT22;2527;50.892;16.706;2023-12-20T03:09:14;10.30;99.90
5017;DHT22;2527;50.892;16.706;2023-12-20T03:11:40;10.30;99.90
5017;DHT22;2527;50.892;16.706;2023-12-20T03:14:06;10.40;99.90
5017;DHT22;2527;50.892;16.706;2023-12-20T03:16:31;10.40;99.90
5017;DHT22;2527;50.892;16.706;2023-12-20T03:18:58;10.40;99.90
5017;DHT22;2527;50.892;16.706;2023-12-20T03:21:24;10.80;99.90
5017;DHT22;2527;50.892;16.706;2023-12-20T03:23:49;10.40;99.90
5017;DHT22;2527;50.892;16.706;2023-12-20T03:26:15;10.40;99.90
5017;DHT22;2527;50.892;16.706;2023-12-20T03:28:41;10.40;99.90
5017;DHT22;2527;50.892;16.706;2023-12-20T03:31:09;10.50;99.90
5017;DHT22;2527;50.892;16.706;2023-12-20T03:33:35;10.50;99.90
5017;DHT22;2527;50.892;16.706;2023-12-20T03:36:01;10.50;99.90
5017;DHT22;2527;50.892;16.706;2023-12-20T03:38:26;10.50;99.90
5017;DHT22;2527;50.892;16.706;2023-12-20T03:40:52;10.50;99.90
5017;DHT22;2527;50.892;16.706;2023-12-20T03:43:18;10.50;99.90
5017;DHT22;2527;50.892;16.706;2023-12-20T03:45:43;10.50;99.90
5017;DHT22;2527;50.892;16.706;2023-12-20T03:48:09;10.50;99.90
5017;DHT22;2527;50.892;16.706;2023-12-20T03:50:35;10.50;99.90
5017;DHT22;2527;50.892;16.706;2023-12-20T03:53:02;10.50;99.90
5017;DHT22;2527;50.892;16.706;2023-12-20T03:55:29;10.50;99.90
5017;DHT22;2527;50.892;16.706;2023-12-20T03:57:57;12.60;99.90
5017;DHT22;2527;50.892;16.706;2023-12-20T04:00:23;10.50;99.90
5017;DHT22;2527;50.892;16.706;2023-12-20T04:02:49;10.50;99.90
5017;DHT22;2527;50.892;16.706;2023-12-20T04:05:15;10.50;99.90
5017;DHT22;2527;50.892;16.706;2023-12-20T04:07:41;10.50;99.90
5017;DHT22;2527;50.892;16.706;2023-12-20T04:10:07;10.50;99.90
5017;DHT22;2527;50.892;16.706;2023-12-20T04:12:33;10.50;99.90
5017;DHT22;2527;50.892;16.706;2023-12-20T04:14:59;10.50;99.90
5017;DHT22;2527;50.892;16.706;2023-12-20T04:17:24;10.50;99.90
5017;DHT22;2527;50.892;16.706;2023-12-20T04:19:50;10.50;99.90
5017;DHT22;2527;50.892;16.706;2023-12-20T04:22:17;10.40;99.90
5017;DHT22;2527;50.892;16.706;2023-12-20T04:24:45;10.40;99.90
5017;DHT22;2527;50.892;16.706;2023-12-20T04:27:11;10.40;99.90
5017;DHT22;2527;50.892;16.706;2023-12-20T04:29:37;10.40;99.90
5017;DHT22;2527;50.892;16.706;2023-12-20T04:32:03;10.40;99.90
5017;DHT22;2527;50.892;16.706;2023-12-20T04:34:29;10.40;99.90
5017;DHT22;2527;50.892;16.706;2023-12-20T04:36:55;10.40;99.90
5017;DHT22;2527;50.892;16.706;2023-12-20T04:39:21;10.40;99.90
5017;DHT22;2527;50.892;16.706;2023-12-20T04:41:47;10.40;99.90
5017;DHT22;2527;50.892;16.706;2023-12-20T04:44:13;10.40;99.90
5017;DHT22;2527;50.892;16.706;2023-12-20T04:46:39;10.40;99.90
5017;DHT22;2527;50.892;16.706;2023-12-20T04:49:05;10.40;99.90
5017;DHT22;2527;50.892;16.706;2023-12-20T04:51:32;10.30;99.90
5017;DHT22;2527;50.892;16.706;2023-12-20T04:53:58;10.30;99.90
5017;DHT22;2527;50.892;16.706;2023-12-20T04:56:24;10.30;99.90
5017;DHT22;2527;50.892;16.706;2023-12-20T04:58:49;10.30;99.90
5017;DHT22;2527;50.892;16.706;2023-12-20T05:01:15;10.30;99.90
5017;DHT22;2527;50.892;16.706;2023-12-20T05:03:42;10.30;99.90
5017;DHT22;2527;50.892;16.706;2023-12-20T05:06:07;10.30;99.90
5017;DHT22;2527;50.892;16.706;2023-12-20T05:08:33;10.30;99.90
5017;DHT22;2527;50.892;16.706;2023-12-20T05:10:59;10.30;99.90
5017;DHT22;2527;50.892;16.706;2023-12-20T05:13:25;10.30;99.90
5017;DHT22;2527;50.892;16.706;2023-12-20T05:15:50;10.30;99.90
5017;DHT22;2527;50.892;16.706;2023-12-20T05:18:16;10.30;99.90
5017;DHT22;2527;50.892;16.706;2023-12-20T05:20:43;10.30;99.90
5017;DHT22;2527;50.892;16.706;2023-12-20T05:23:08;10.30;99.90
5017;DHT22;2527;50.892;16.706;2023-12-20T05:25:34;10.30;99.90
5017;DHT22;2527;50.892;16.706;2023-12-20T05:28:00;10.20;99.90
5017;DHT22;2527;50.892;16.706;2023-12-20T05:30:26;10.20;99.90
5017;DHT22;2527;50.892;16.706;2023-12-20T05:32:52;10.20;99.90
5017;DHT22;2527;50.892;16.706;2023-12-20T05:35:17;10.30;99.90
5017;DHT22;2527;50.892;16.706;2023-12-20T05:37:43;10.20;99.90
5017;DHT22;2527;50.892;16.706;2023-12-20T05:40:10;10.20;99.90
5017;DHT22;2527;50.892;16.706;2023-12-20T05:42:36;10.20;99.90
5017;DHT22;2527;50.892;16.706;2023-12-20T05:45:02;10.20;99.90
5017;DHT22;2527;50.892;16.706;2023-12-20T05:47:28;10.20;99.90
5017;DHT22;2527;50.892;16.706;2023-12-20T05:49:54;10.20;99.90
5017;DHT22;2527;50.892;16.706;2023-12-20T05:52:20;10.20;99.90
5017;DHT22;2527;50.892;16.706;2023-12-20T05:54:45;10.20;99.90
5017;DHT22;2527;50.892;16.706;2023-12-20T05:57:12;10.20;99.90
5017;DHT22;2527;50.892;16.706;2023-12-20T05:59:46;10.30;99.90
5017;DHT22;2527;50.892;16.706;2023-12-20T06:02:12;10.20;99.90
5017;DHT22;2527;50.892;16.706;2023-12-20T06:04:41;10.20;99.90
5017;DHT22;2527;50.892;16.706;2023-12-20T06:07:07;10.20;99.90
5017;DHT22;2527;50.892;16.706;2023-12-20T06:09:33;10.20;99.90
5017;DHT22;2527;50.892;16.706;2023-12-20T06:11:58;10.20;99.90
5017;DHT22;2527;50.892;16.706;2023-12-20T06:14:24;10.20;99.90
5017;DHT22;2527;50.892;16.706;2023-12-20T06:16:49;10.10;99.90
5017;DHT22;2527;50.892;16.706;2023-12-20T06:19:16;10.10;99.90
5017;DHT22;2527;50.892;16.706;2023-12-20T06:21:41;10.10;99.90
5017;DHT22;2527;50.892;16.706;2023-12-20T06:24:07;10.10;99.90
5017;DHT22;2527;50.892;16.706;2023-12-20T06:26:33;10.10;99.90
5017;DHT22;2527;50.892;16.706;2023-12-20T06:28:59;10.10;99.90
5017;DHT22;2527;50.892;16.706;2023-12-20T06:31:25;10.10;99.90
5017;DHT22;2527;50.892;16.706;2023-12-20T06:33:51;10.10;99.90
5017;DHT22;2527;50.892;16.706;2023-12-20T06:36:25;10.00;99.90
5017;DHT22;2527;50.892;16.706;2023-12-20T06:38:52;10.10;99.90
5017;DHT22;2527;50.892;16.706;2023-12-20T06:41:17;10.10;99.90
5017;DHT22;2527;50.892;16.706;2023-12-20T06:43:43;10.10;99.90
5017;DHT22;2527;50.892;16.706;2023-12-20T06:46:09;10.00;99.90
5017;DHT22;2527;50.892;16.706;2023-12-20T06:48:35;10.00;99.90
5017;DHT22;2527;50.892;16.706;2023-12-20T06:51:01;10.00;99.90
5017;DHT22;2527;50.892;16.706;2023-12-20T06:53:29;10.00;99.90
5017;DHT22;2527;50.892;16.706;2023-12-20T06:55:55;10.00;99.90
5017;DHT22;2527;50.892;16.706;2023-12-20T06:58:24;10.00;99.90
5017;DHT22;2527;50.892;16.706;2023-12-20T07:00:50;10.00;99.90
5017;DHT22;2527;50.892;16.706;2023-12-20T07:03:16;10.00;99.90
5017;DHT22;2527;50.892;16.706;2023-12-20T07:05:42;10.00;99.90
5017;DHT22;2527;50.892;16.706;2023-12-20T07:08:08;10.00;99.90
5017;DHT22;2527;50.892;16.706;2023-12-20T07:10:33;10.00;99.90
5017;DHT22;2527;50.892;16.706;2023-12-20T07:12:59;10.00;99.90
5017;DHT22;2527;50.892;16.706;2023-12-20T07:15:25;10.00;99.90
5017;DHT22;2527;50.892;16.706;2023-12-20T07:17:53;10.00;99.90
5017;DHT22;2527;50.892;16.706;2023-12-20T07:20:18;10.00;99.90
5017;DHT22;2527;50.892;16.706;2023-12-20T07:22:44;10.00;99.90
5017;DHT22;2527;50.892;16.706;2023-12-20T07:25:10;10.00;99.90
5017;DHT22;2527;50.892;16.706;2023-12-20T07:27:36;9.90;99.90
5017;DHT22;2527;50.892;16.706;2023-12-20T07:30:01;10.00;99.90
5017;DHT22;2527;50.892;16.706;2023-12-20T07:32:27;9.90;99.90
5017;DHT22;2527;50.892;16.706;2023-12-20T07:34:53;10.00;99.90
5017;DHT22;2527;50.892;16.706;2023-12-20T07:37:20;9.90;99.90
5017;DHT22;2527;50.892;16.706;2023-12-20T07:39:46;9.90;99.90
5017;DHT22;2527;50.892;16.706;2023-12-20T07:42:11;9.90;99.90
5017;DHT22;2527;50.892;16.706;2023-12-20T07:44:37;9.90;99.90
5017;DHT22;2527;50.892;16.706;2023-12-20T07:47:03;9.90;99.90
5017;DHT22;2527;50.892;16.706;2023-12-20T07:49:30;10.00;99.90
5017;DHT22;2527;50.892;16.706;2023-12-20T07:51:56;9.90;99.90
5017;DHT22;2527;50.892;16.706;2023-12-20T07:54:22;9.90;99.90
5017;DHT22;2527;50.892;16.706;2023-12-20T07:56:48;9.90;99.90
5017;DHT22;2527;50.892;16.706;2023-12-20T07:59:14;9.90;99.90
5017;DHT22;2527;50.892;16.706;2023-12-20T08:01:40;9.90;99.90
5017;DHT22;2527;50.892;16.706;2023-12-20T08:04:06;9.80;99.90
5017;DHT22;2527;50.892;16.706;2023-12-20T08:06:32;9.80;99.90
5017;DHT22;2527;50.892;16.706;2023-12-20T08:08:57;9.80;99.90
5017;DHT22;2527;50.892;16.706;2023-12-20T08:11:23;9.80;99.90
5017;DHT22;2527;50.892;16.706;2023-12-20T08:13:49;9.80;99.90
5017;DHT22;2527;50.892;16.706;2023-12-20T08:16:15;9.80;99.90
5017;DHT22;2527;50.892;16.706;2023-12-20T08:18:43;9.80;99.90
5017;DHT22;2527;50.892;16.706;2023-12-20T08:21:09;9.90;99.90
5017;DHT22;2527;50.892;16.706;2023-12-20T08:23:36;9.90;99.90
5017;DHT22;2527;50.892;16.706;2023-12-20T08:26:06;9.90;99.90
5017;DHT22;2527;50.892;16.706;2023-12-20T08:28:32;9.90;99.90
5017;DHT22;2527;50.892;16.706;2023-12-20T08:30:57;9.90;99.90
5017;DHT22;2527;50.892;16.706;2023-12-20T08:33:23;9.90;99.90
5017;DHT22;2527;50.892;16.706;2023-12-20T08:35:49;9.90;99.90
5017;DHT22;2527;50.892;16.706;2023-12-20T08:38:14;9.90;99.90
5017;DHT22;2527;50.892;16.706;2023-12-20T08:40:40;9.90;99.90
5017;DHT22;2527;50.892;16.706;2023-12-20T08:43:06;10.00;99.90
5017;DHT22;2527;50.892;16.706;2023-12-20T08:45:32;9.90;99.90
5017;DHT22;2527;50.892;16.706;2023-12-20T08:47:58;9.90;99.90
5017;DHT22;2527;50.892;16.706;2023-12-20T08:50:25;10.00;99.90
5017;DHT22;2527;50.892;16.706;2023-12-20T08:52:51;9.90;99.90
5017;DHT22;2527;50.892;16.706;2023-12-20T08:55:19;10.00;99.90
5017;DHT22;2527;50.892;16.706;2023-12-20T08:57:44;9.90;99.90
5017;DHT22;2527;50.892;16.706;2023-12-20T09:00:10;10.00;99.90
5017;DHT22;2527;50.892;16.706;2023-12-20T09:02:37;10.00;99.90
5017;DHT22;2527;50.892;16.706;2023-12-20T09:05:03;10.00;99.90
5017;DHT22;2527;50.892;16.706;2023-12-20T09:07:29;10.00;99.90
5017;DHT22;2527;50.892;16.706;2023-12-20T09:09:57;10.00;99.90
5017;DHT22;2527;50.892;16.706;2023-12-20T09:12:24;10.00;99.90
5017;DHT22;2527;50.892;16.706;2023-12-20T09:14:53;10.00;99.90
5017;DHT22;2527;50.892;16.706;2023-12-20T09:17:19;10.10;99.90
5017;DHT22;2527;50.892;16.706;2023-12-20T09:19:46;10.10;99.90
5017;DHT22;2527;50.892;16.706;2023-12-20T09:22:12;10.10;99.90
5017;DHT22;2527;50.892;16.706;2023-12-20T09:24:38;10.20;99.90
5017;DHT22;2527;50.892;16.706;2023-12-20T09:27:06;10.10;99.90
5017;DHT22;2527;50.892;16.706;2023-12-20T09:29:33;10.20;99.90
5017;DHT22;2527;50.892;16.706;2023-12-20T09:31:58;10.20;99.90
5017;DHT22;2527;50.892;16.706;2023-12-20T09:34:24;10.10;99.90
5017;DHT22;2527;50.892;16.706;2023-12-20T09:36:51;10.20;99.90
5017;DHT22;2527;50.892;16.706;2023-12-20T09:39:18;10.20;99.90
5017;DHT22;2527;50.892;16.706;2023-12-20T09:42:00;10.20;99.90
5017;DHT22;2527;50.892;16.706;2023-12-20T09:44:27;10.20;99.90
5017;DHT22;2527;50.892;16.706;2023-12-20T09:46:54;10.20;99.90
5017;DHT22;2527;50.892;16.706;2023-12-20T09:49:20;10.20;99.90
5017;DHT22;2527;50.892;16.706;2023-12-20T09:51:47;10.20;99.90
5017;DHT22;2527;50.892;16.706;2023-12-20T09:54:17;10.30;99.90
5017;DHT22;2527;50.892;16.706;2023-12-20T09:56:43;10.30;99.90
5017;DHT22;2527;50.892;16.706;2023-12-20T09:59:08;10.30;99.90
5017;DHT22;2527;50.892;16.706;2023-12-20T10:01:34;10.30;99.90
5017;DHT22;2527;50.892;16.706;2023-12-20T10:04:00;10.30;99.90
5017;DHT22;2527;50.892;16.706;2023-12-20T10:06:27;10.30;99.90
5017;DHT22;2527;50.892;16.706;2023-12-20T10:08:52;10.30;99.90
5017;DHT22;2527;50.892;16.706;2023-12-20T10:11:18;10.30;99.90
5017;DHT22;2527;50.892;16.706;2023-12-20T10:13:45;10.30;99.90
5017;DHT22;2527;50.892;16.706;2023-12-20T10:16:13;10.30;99.90
5017;DHT22;2527;50.892;16.706;2023-12-20T10:18:38;10.30;99.90
5017;DHT22;2527;50.892;16.706;2023-12-20T10:21:04;10.30;99.90
5017;DHT22;2527;50.892;16.706;2023-12-20T10:23:31;10.30;99.90
5017;DHT22;2527;50.892;16.706;2023-12-20T10:26:00;10.30;99.90
5017;DHT22;2527;50.892;16.706;2023-12-20T10:28:33;10.30;99.90
5017;DHT22;2527;50.892;16.706;2023-12-20T10:30:59;10.30;99.90
5017;DHT22;2527;50.892;16.706;2023-12-20T10:33:28;10.30;99.90
5017;DHT22;2527;50.892;16.706;2023-12-20T10:35:55;10.30;99.90
5017;DHT22;2527;50.892;16.706;2023-12-20T10:38:21;10.30;99.90
5017;DHT22;2527;50.892;16.706;2023-12-20T10:40:47;10.30;99.90
5017;DHT22;2527;50.892;16.706;2023-12-20T10:43:13;10.30;99.90
5017;DHT22;2527;50.892;16.706;2023-12-20T10:45:41;10.50;99.90
5017;DHT22;2527;50.892;16.706;2023-12-20T10:48:07;10.30;99.90
5017;DHT22;2527;50.892;16.706;2023-12-20T10:50:33;10.40;99.90
5017;DHT22;2527;50.892;16.706;2023-12-20T10:53:01;10.40;99.90
5017;DHT22;2527;50.892;16.706;2023-12-20T10:55:27;10.40;99.90
5017;DHT22;2527;50.892;16.706;2023-12-20T10:57:59;10.50;99.90
5017;DHT22;2527;50.892;16.706;2023-12-20T11:00:25;10.50;99.90
5017;DHT22;2527;50.892;16.706;2023-12-20T11:02:51;10.50;99.90
5017;DHT22;2527;50.892;16.706;2023-12-20T11:08:06;10.50;99.90
5017;DHT22;2527;50.892;16.706;2023-12-20T11:10:43;10.50;99.90
5017;DHT22;2527;50.892;16.706;2023-12-20T11:16:13;10.50;99.90
5017;DHT22;2527;50.892;16.706;2023-12-20T11:18:40;10.50;99.90
5017;DHT22;2527;50.892;16.706;2023-12-20T11:21:06;10.50;99.90
5017;DHT22;2527;50.892;16.706;2023-12-20T11:23:32;10.50;99.90
5017;DHT22;2527;50.892;16.706;2023-12-20T11:26:01;10.50;99.90
5017;DHT22;2527;50.892;16.706;2023-12-20T11:28:27;10.50;99.90
5017;DHT22;2527;50.892;16.706;2023-12-20T11:30:54;10.50;99.90
5017;DHT22;2527;50.892;16.706;2023-12-20T11:33:24;10.50;99.90
5017;DHT22;2527;50.892;16.706;2023-12-20T11:35:50;10.60;99.90
5017;DHT22;2527;50.892;16.706;2023-12-20T11:38:16;10.60;99.90
5017;DHT22;2527;50.892;16.706;2023-12-20T11:40:44;10.60;99.90
5017;DHT22;2527;50.892;16.706;2023-12-20T11:43:09;10.60;99.90
5017;DHT22;2527;50.892;16.706;2023-12-20T11:45:35;10.60;99.90
5017;DHT22;2527;50.892;16.706;2023-12-20T11:48:01;10.60;99.90
5017;DHT22;2527;50.892;16.706;2023-12-20T11:50:28;10.70;99.90
5017;DHT22;2527;50.892;16.706;2023-12-20T11:52:55;10.70;99.90
5017;DHT22;2527;50.892;16.706;2023-12-20T11:55:23;10.70;99.90
5017;DHT22;2527;50.892;16.706;2023-12-20T11:57:50;10.70;99.90
5017;DHT22;2527;50.892;16.706;2023-12-20T12:00:16;10.70;99.90
5017;DHT22;2527;50.892;16.706;2023-12-20T12:02:43;10.70;99.90
5017;DHT22;2527;50.892;16.706;2023-12-20T12:05:20;10.70;99.90
5017;DHT22;2527;50.892;16.706;2023-12-20T12:07:45;10.70;99.90
5017;DHT22;2527;50.892;16.706;2023-12-20T12:10:12;10.70;99.90
5017;DHT22;2527;50.892;16.706;2023-12-20T12:12:37;10.70;99.90
5017;DHT22;2527;50.892;16.706;2023-12-20T12:15:04;10.80;99.90
5017;DHT22;2527;50.892;16.706;2023-12-20T12:17:31;10.70;99.90
5017;DHT22;2527;50.892;16.706;2023-12-20T12:20:05;10.80;99.90
5017;DHT22;2527;50.892;16.706;2023-12-20T12:22:31;10.80;99.90
5017;DHT22;2527;50.892;16.706;2023-12-20T12:24:58;10.80;99.90
5017;DHT22;2527;50.892;16.706;2023-12-20T12:27:24;10.80;99.90
5017;DHT22;2527;50.892;16.706;2023-12-20T12:30:03;10.80;99.90
5017;DHT22;2527;50.892;16.706;2023-12-20T12:32:29;10.80;99.90
5017;DHT22;2527;50.892;16.706;2023-12-20T12:34:55;10.80;99.90
5017;DHT22;2527;50.892;16.706;2023-12-20T12:37:22;10.80;99.90
5017;DHT22;2527;50.892;16.706;2023-12-20T12:39:49;10.80;99.90
5017;DHT22;2527;50.892;16.706;2023-12-20T12:42:15;10.80;99.90
5017;DHT22;2527;50.892;16.706;2023-12-20T12:44:40;10.80;99.90
5017;DHT22;2527;50.892;16.706;2023-12-20T12:47:06;10.80;99.90
5017;DHT22;2527;50.892;16.706;2023-12-20T12:49:35;10.80;99.90
5017;DHT22;2527;50.892;16.706;2023-12-20T12:52:00;10.80;99.90
5017;DHT22;2527;50.892;16.706;2023-12-20T12:54:26;10.80;99.90
5017;DHT22;2527;50.892;16.706;2023-12-20T12:56:51;10.80;99.90
5017;DHT22;2527;50.892;16.706;2023-12-20T12:59:19;10.80;99.90
5017;DHT22;2527;50.892;16.706;2023-12-20T13:01:45;10.70;99.90
5017;DHT22;2527;50.892;16.706;2023-12-20T13:04:10;10.80;99.90
5017;DHT22;2527;50.892;16.706;2023-12-20T13:06:38;10.80;99.90
5017;DHT22;2527;50.892;16.706;2023-12-20T13:09:07;10.80;99.90
5017;DHT22;2527;50.892;16.706;2023-12-20T13:11:34;10.80;99.90
5017;DHT22;2527;50.892;16.706;2023-12-20T13:14:00;10.80;99.90
5017;DHT22;2527;50.892;16.706;2023-12-20T13:16:26;10.80;99.90
5017;DHT22;2527;50.892;16.706;2023-12-20T13:18:53;10.80;99.90
5017;DHT22;2527;50.892;16.706;2023-12-20T13:21:18;10.80;99.90
5017;DHT22;2527;50.892;16.706;2023-12-20T13:23:44;10.80;99.90
5017;DHT22;2527;50.892;16.706;2023-12-20T13:26:10;12.10;99.90
5017;DHT22;2527;50.892;16.706;2023-12-20T13:28:36;10.80;99.90
5017;DHT22;2527;50.892;16.706;2023-12-20T13:31:02;10.80;99.90
5017;DHT22;2527;50.892;16.706;2023-12-20T13:33:28;10.80;99.90
5017;DHT22;2527;50.892;16.706;2023-12-20T13:35:54;10.80;99.90
5017;DHT22;2527;50.892;16.706;2023-12-20T13:38:21;10.80;99.90
5017;DHT22;2527;50.892;16.706;2023-12-20T13:40:46;10.80;99.90
5017;DHT22;2527;50.892;16.706;2023-12-20T13:43:12;10.70;99.90
5017;DHT22;2527;50.892;16.706;2023-12-20T13:45:39;10.80;99.90
5017;DHT22;2527;50.892;16.706;2023-12-20T13:48:05;10.80;99.90
5017;DHT22;2527;50.892;16.706;2023-12-20T13:50:31;10.80;99.90
5017;DHT22;2527;50.892;16.706;2023-12-20T13:52:56;10.80;99.90
5017;DHT22;2527;50.892;16.706;2023-12-20T13:55:22;10.80;99.90
5017;DHT22;2527;50.892;16.706;2023-12-20T13:57:51;10.80;99.90
5017;DHT22;2527;50.892;16.706;2023-12-20T14:00:17;10.80;99.90
5017;DHT22;2527;50.892;16.706;2023-12-20T14:02:43;10.70;99.90
5017;DHT22;2527;50.892;16.706;2023-12-20T14:05:09;10.70;99.90
5017;DHT22;2527;50.892;16.706;2023-12-20T14:07:35;10.70;99.90
5017;DHT22;2527;50.892;16.706;2023-12-20T14:10:01;10.70;99.90
5017;DHT22;2527;50.892;16.706;2023-12-20T14:12:27;10.70;99.90
5017;DHT22;2527;50.892;16.706;2023-12-20T14:14:52;10.70;99.90
5017;DHT22;2527;50.892;16.706;2023-12-20T14:17:21;10.70;99.90
5017;DHT22;2527;50.892;16.706;2023-12-20T14:19:47;10.70;99.90
5017;DHT22;2527;50.892;16.706;2023-12-20T14:22:13;10.70;99.90
5017;DHT22;2527;50.892;16.706;2023-12-20T14:24:42;10.70;99.90
5017;DHT22;2527;50.892;16.706;2023-12-20T14:27:08;10.70;99.90
5017;DHT22;2527;50.892;16.706;2023-12-20T14:29:34;10.70;99.90
5017;DHT22;2527;50.892;16.706;2023-12-20T14:32:00;10.70;99.90
5017;DHT22;2527;50.892;16.706;2023-12-20T14:34:29;10.70;99.90
5017;DHT22;2527;50.892;16.706;2023-12-20T14:36:54;10.70;99.90
5017;DHT22;2527;50.892;16.706;2023-12-20T14:39:21;10.70;99.90
5017;DHT22;2527;50.892;16.706;2023-12-20T14:41:46;10.70;99.90
5017;DHT22;2527;50.892;16.706;2023-12-20T14:44:12;10.60;99.90
5017;DHT22;2527;50.892;16.706;2023-12-20T14:46:38;10.60;99.90
5017;DHT22;2527;50.892;16.706;2023-12-20T14:49:04;10.60;99.90
5017;DHT22;2527;50.892;16.706;2023-12-20T14:51:30;10.60;99.90
5017;DHT22;2527;50.892;16.706;2023-12-20T14:53:56;10.60;99.90
5017;DHT22;2527;50.892;16.706;2023-12-20T14:56:23;10.50;99.90
5017;DHT22;2527;50.892;16.706;2023-12-20T14:58:49;10.50;99.90
5017;DHT22;2527;50.892;16.706;2023-12-20T15:01:15;10.50;99.90
5017;DHT22;2527;50.892;16.706;2023-12-20T15:03:40;10.40;99.90
5017;DHT22;2527;50.892;16.706;2023-12-20T15:06:06;10.40;99.90
5017;DHT22;2527;50.892;16.706;2023-12-20T15:08:32;10.30;99.90
5017;DHT22;2527;50.892;16.706;2023-12-20T15:10:58;10.30;99.90
5017;DHT22;2527;50.892;16.706;2023-12-20T15:13:24;10.30;99.90
5017;DHT22;2527;50.892;16.706;2023-12-20T15:15:50;10.30;99.90
5017;DHT22;2527;50.892;16.706;2023-12-20T15:18:18;10.30;99.90
5017;DHT22;2527;50.892;16.706;2023-12-20T15:20:43;10.20;99.90
5017;DHT22;2527;50.892;16.706;2023-12-20T15:23:10;10.20;99.90
5017;DHT22;2527;50.892;16.706;2023-12-20T15:25:36;10.10;99.90
5017;DHT22;2527;50.892;16.706;2023-12-20T15:28:01;10.10;99.90
5017;DHT22;2527;50.892;16.706;2023-12-20T15:30:28;10.10;99.90
5017;DHT22;2527;50.892;16.706;2023-12-20T15:32:55;10.10;99.90
5017;DHT22;2527;50.892;16.706;2023-12-20T15:35:22;10.10;99.90
5017;DHT22;2527;50.892;16.706;2023-12-20T15:37:47;10.10;99.90
5017;DHT22;2527;50.892;16.706;2023-12-20T15:40:13;10.00;99.90
5017;DHT22;2527;50.892;16.706;2023-12-20T15:42:39;9.90;99.90
5017;DHT22;2527;50.892;16.706;2023-12-20T15:45:05;9.90;99.90
5017;DHT22;2527;50.892;16.706;2023-12-20T15:47:32;9.90;99.90